Time;durP1;ratioP1;P1;durP2;ratioP2;P2;SDS_P1;SDS_P2;PMS_P1;PMS_P2;Temp;Humidity;BMP_temperature;BMP_pressure;BME280_temperature;BME280_humidity;BME280_pressure;Samples;Min_cycle;Max_cycle;Signal;HPM_P1;HPM_P2
2023/02/27 00:00:16;;;;;;;2.55;0.85;;;;;;;-2.22;66.29;102361.53;4977770;28;20054;-70
2023/02/27 00:02:44;;;;;;;1.88;0.65;;;;;;;-2.27;66.32;102362.16;4981399;28;20043;-70
2023/02/27 00:05:12;;;;;;;2.40;0.75;;;;;;;-2.27;66.28;102361.28;4978598;28;20051;-70
2023/02/27 00:07:39;;;;;;;3.67;0.73;;;;;;;-2.30;66.35;102363.66;4979079;28;20061;-70
2023/02/27 00:10:07;;;;;;;4.60;1.50;;;;;;;-2.33;66.31;102354.13;4980380;28;20069;-70
2023/02/27 00:12:37;;;;;;;5.18;0.55;;;;;;;-2.34;66.43;102359.13;4976242;28;20102;-71
2023/02/27 00:15:08;;;;;;;2.97;1.08;;;;;;;-2.36;66.33;102359.06;4979246;28;20109;-71
2023/02/27 00:17:35;;;;;;;4.88;0.70;;;;;;;-2.37;66.30;102359.84;4982498;28;20049;-70
2023/02/27 00:20:02;;;;;;;4.38;0.85;;;;;;;-2.38;66.45;102360.63;4977225;28;20542;-70
2023/02/27 00:22:29;;;;;;;2.00;0.60;;;;;;;-2.44;66.30;102357.72;4977237;28;20081;-71
2023/02/27 00:24:56;;;;;;;3.25;0.63;;;;;;;-2.46;66.34;102355.84;4977925;28;20410;-70
2023/02/27 00:27:23;;;;;;;4.32;1.35;;;;;;;-2.44;66.36;102361.97;4978348;28;20050;-71
2023/02/27 00:29:50;;;;;;;2.17;0.70;;;;;;;-2.45;66.56;102367.84;4977079;28;20053;-71
2023/02/27 00:32:19;;;;;;;4.25;0.80;;;;;;;-2.51;66.33;102361.56;4978880;28;20495;-70
2023/02/27 00:34:45;;;;;;;1.08;0.47;;;;;;;-2.51;66.50;102369.22;4977735;28;20046;-71
2023/02/27 00:37:12;;;;;;;2.67;0.90;;;;;;;-2.52;66.42;102369.16;4978808;28;20042;-71
2023/02/27 00:39:39;;;;;;;3.65;0.98;;;;;;;-2.52;66.70;102372.59;4980028;28;20129;-70
2023/02/27 00:42:06;;;;;;;3.13;0.60;;;;;;;-2.53;66.60;102373.41;4978641;28;20057;-70
2023/02/27 00:44:33;;;;;;;1.92;1.00;;;;;;;-2.54;66.36;102375.84;4978196;28;20431;-70
2023/02/27 00:47:00;;;;;;;5.32;0.55;;;;;;;-2.59;66.39;102367.91;4979680;28;20550;-70
2023/02/27 00:49:28;;;;;;;2.55;0.65;;;;;;;-2.58;66.35;102386.69;4978748;28;20883;-70
2023/02/27 00:51:55;;;;;;;4.28;0.80;;;;;;;-2.61;66.50;102384.84;4977592;28;20421;-70
2023/02/27 00:54:22;;;;;;;5.35;0.70;;;;;;;-2.61;66.55;102387.41;4979179;28;20139;-70
2023/02/27 00:56:49;;;;;;;4.90;1.40;;;;;;;-2.61;66.62;102384.84;4979638;28;20133;-70
2023/02/27 00:59:16;;;;;;;2.28;1.00;;;;;;;-2.62;66.73;102367.75;4977279;28;20518;-70
2023/02/27 01:01:44;;;;;;;4.78;1.08;;;;;;;-2.63;66.74;102376.19;4979342;28;20042;-71
2023/02/27 01:04:11;;;;;;;5.93;0.60;;;;;;;-2.69;67.30;102375.81;4981119;28;20053;-71
2023/02/27 01:06:40;;;;;;;4.25;0.68;;;;;;;-2.71;67.01;102372.28;4983703;28;20399;-71
2023/02/27 01:09:07;;;;;;;8.40;1.05;;;;;;;-2.67;66.80;102379.34;4979953;28;20058;-71
2023/02/27 01:11:34;;;;;;;4.95;0.70;;;;;;;-2.66;66.97;102378.56;4982705;28;20046;-71
2023/02/27 01:14:01;;;;;;;4.18;0.82;;;;;;;-2.66;66.97;102381.13;4986485;28;20058;-71
2023/02/27 01:16:28;;;;;;;2.30;0.55;;;;;;;-2.66;66.79;102381.13;4983658;28;20039;-71
2023/02/27 01:18:55;;;;;;;4.95;0.90;;;;;;;-2.66;67.12;102386.22;4986043;28;20502;-71
2023/02/27 01:21:22;;;;;;;2.67;0.90;;;;;;;-2.65;67.17;102387.97;4985694;28;20116;-70
2023/02/27 01:23:50;;;;;;;1.83;0.70;;;;;;;-2.66;67.18;102383.66;4982781;28;20053;-70
2023/02/27 01:26:17;;;;;;;6.38;0.73;;;;;;;-2.63;67.22;102393.22;4986231;28;20058;-71
2023/02/27 01:28:44;;;;;;;1.95;0.80;;;;;;;-2.62;67.01;102388.19;4985567;28;20061;-71
2023/02/27 01:31:11;;;;;;;5.63;0.93;;;;;;;-2.62;67.18;102388.19;4983678;28;20518;-71
2023/02/27 01:33:38;;;;;;;6.15;0.68;;;;;;;-2.61;67.35;102382.28;4984314;28;20042;-71
2023/02/27 01:36:05;;;;;;;3.25;0.60;;;;;;;-2.60;67.53;102381.47;4981076;28;20050;-71
2023/02/27 01:38:32;;;;;;;5.60;0.90;;;;;;;-2.57;67.25;102386.78;4985510;28;20039;-71
2023/02/27 01:41:01;;;;;;;3.22;0.50;;;;;;;-2.55;67.64;102390.31;4984661;28;20054;-71
2023/02/27 01:43:28;;;;;;;3.63;0.57;;;;;;;-2.55;67.40;102382.66;4978558;28;20054;-71
2023/02/27 01:45:55;;;;;;;3.42;0.80;;;;;;;-2.51;67.57;102381.16;4982145;28;20550;-71
2023/02/27 01:48:27;;;;;;;1.40;0.55;;;;;;;-2.50;67.59;102373.59;4983241;28;20058;-71
2023/02/27 01:50:58;;;;;;;2.10;0.90;;;;;;;-2.54;67.76;102366.50;4982624;28;20073;-71
2023/02/27 01:53:27;;;;;;;4.97;0.88;;;;;;;-2.43;67.83;102389.31;4985355;28;20387;-71
2023/02/27 01:55:55;;;;;;;1.60;0.85;;;;;;;-2.45;68.00;102375.53;4984272;28;20050;-71
2023/02/27 01:58:25;;;;;;;2.05;0.70;;;;;;;-2.40;68.01;102387.81;4982617;28;20402;-71
2023/02/27 02:00:53;;;;;;;1.95;0.70;;;;;;;-2.36;68.22;102392.31;4981604;28;20493;-71
2023/02/27 02:03:28;;;;;;;13.48;1.02;;;;;;;-2.36;67.91;102393.97;4978887;28;20054;-71
2023/02/27 02:05:58;;;;;;;2.70;0.82;;;;;;;-2.36;68.27;102396.53;4981691;28;20089;-71
2023/02/27 02:08:27;;;;;;;2.30;0.60;;;;;;;-2.33;68.23;102397.63;4982781;28;21216;-71
2023/02/27 02:10:56;;;;;;;2.85;0.73;;;;;;;-2.27;68.13;102402.22;4984111;28;20050;-71
2023/02/27 02:13:24;;;;;;;2.83;0.60;;;;;;;-2.26;68.21;102398.88;4981575;28;20063;-71
2023/02/27 02:16:09;;;;;;;5.65;1.00;;;;;;;-2.26;68.00;102399.75;4981226;28;20046;-71
2023/02/27 02:18:45;;;;;;;4.45;0.70;;;;;;;-2.19;68.15;102410.34;4983614;28;20049;-71
2023/02/27 02:21:48;;;;;;;2.90;0.50;;;;;;;-2.16;68.00;102421.69;4982708;28;20054;-71
2023/02/27 02:24:49;;;;;;;3.28;1.42;;;;;;;-2.14;68.35;102417.50;4982464;28;20043;-71
2023/02/27 02:27:27;;;;;;;6.82;0.70;;;;;;;-2.12;68.33;102417.63;4982100;28;20047;-71
2023/02/27 02:30:42;;;;;;;2.80;0.60;;;;;;;-2.06;68.07;102423.09;4979150;28;20051;-71
2023/02/27 02:34:03;;;;;;;2.58;0.85;;;;;;;-2.04;68.17;102419.84;4980596;28;20050;-71
2023/02/27 02:37:00;;;;;;;3.33;0.80;;;;;;;-2.00;68.22;102420.00;4926208;29;20048;-71
2023/02/27 02:39:57;;;;;;;4.72;0.70;;;;;;;-1.99;68.24;102420.13;4983440;28;20051;-71
2023/02/27 02:42:26;;;;;;;5.38;0.88;;;;;;;-1.96;68.16;102420.28;4981326;28;20406;-71
2023/02/27 02:45:05;;;;;;;5.72;0.55;;;;;;;-1.95;68.04;102416.94;4983948;28;20050;-71
2023/02/27 02:47:44;;;;;;;3.45;0.85;;;;;;;-1.90;68.48;102430.91;4983342;28;20048;-71
2023/02/27 02:50:14;;;;;;;3.45;0.60;;;;;;;-1.89;68.32;102432.66;4981260;28;20134;-71
2023/02/27 02:52:55;;;;;;;6.82;1.23;;;;;;;-1.85;68.48;102426.03;4979849;28;20048;-71
2023/02/27 02:55:28;;;;;;;2.10;0.50;;;;;;;-1.82;68.23;102431.34;4982918;28;20585;-71
2023/02/27 02:58:02;;;;;;;1.50;0.52;;;;;;;-1.82;68.49;102419.44;4984232;28;20061;-71
2023/02/27 03:00:33;;;;;;;2.55;0.50;;;;;;;-1.77;68.51;102422.22;4982959;28;20046;-71
2023/02/27 03:03:08;;;;;;;2.97;0.50;;;;;;;-1.78;68.79;102411.91;4980949;28;20817;-71
2023/02/27 03:05:39;;;;;;;7.47;0.98;;;;;;;-1.71;68.77;102421.72;4983650;28;20048;-71
2023/02/27 03:08:10;;;;;;;4.00;1.85;;;;;;;-1.70;68.67;102421.81;4981807;28;20047;-72
2023/02/27 03:10:45;;;;;;;7.00;0.68;;;;;;;-1.68;68.85;102415.09;4982740;28;20419;-71
2023/02/27 03:13:18;;;;;;;10.53;0.90;;;;;;;-1.65;68.80;102422.97;4980059;28;20426;-71
2023/02/27 03:15:50;;;;;;;2.22;0.52;;;;;;;-1.62;68.70;102427.38;4976219;28;20043;-71
2023/02/27 03:18:23;;;;;;;1.38;0.60;;;;;;;-1.61;68.94;102424.00;4978446;28;20053;-71
2023/02/27 03:20:54;;;;;;;2.30;0.43;;;;;;;-1.56;69.07;102429.41;4979451;28;20042;-71
2023/02/27 03:23:25;;;;;;;0.95;0.38;;;;;;;-1.58;69.05;102419.06;4983488;28;20050;-71
2023/02/27 03:25:55;;;;;;;3.28;0.60;;;;;;;-1.53;69.18;102435.59;4983047;28;20049;-71
2023/02/27 03:28:26;;;;;;;2.15;0.50;;;;;;;-1.48;69.11;102435.84;4977309;28;20047;-71
2023/02/27 03:30:59;;;;;;;3.08;1.35;;;;;;;-1.45;68.78;102443.69;4983718;28;20050;-71
2023/02/27 03:33:32;;;;;;;2.13;0.45;;;;;;;-1.47;69.28;102435.94;4981827;28;20092;-71
2023/02/27 03:36:05;;;;;;;6.38;0.82;;;;;;;-1.46;69.21;102434.25;4981390;28;20050;-71
2023/02/27 03:38:38;;;;;;;2.90;0.45;;;;;;;-1.42;69.22;102441.34;4979537;28;20495;-71
2023/02/27 03:41:13;;;;;;;1.50;0.45;;;;;;;-1.37;69.20;102447.59;4981188;28;20050;-71
2023/02/27 03:43:47;;;;;;;6.07;0.85;;;;;;;-1.33;69.44;102446.97;4981154;28;20417;-72
2023/02/27 03:46:17;;;;;;;1.20;0.40;;;;;;;-1.31;68.85;102455.66;4981347;28;20046;-71
2023/02/27 03:48:51;;;;;;;3.30;0.40;;;;;;;-1.29;68.97;102451.47;4981328;28;20317;-74
2023/02/27 03:51:20;;;;;;;3.15;0.40;;;;;;;-1.26;69.09;102456.78;4981561;28;20046;-74
2023/02/27 03:53:52;;;;;;;1.73;0.32;;;;;;;-1.24;69.22;102459.44;4983076;28;20049;-74
2023/02/27 03:56:25;;;;;;;3.33;0.50;;;;;;;-1.22;69.51;102457.84;4985048;28;20043;-78
2023/02/27 03:58:53;;;;;;;0.68;0.40;;;;;;;-1.17;69.35;102470.13;4986283;28;20060;-79
2023/02/27 04:01:20;;;;;;;3.05;0.47;;;;;;;-1.15;69.38;102473.66;4985405;28;20454;-79
2023/02/27 04:03:53;;;;;;;4.05;0.63;;;;;;;-1.11;69.15;102463.56;4988421;28;20486;-78
2023/02/27 04:09:11;;;;;;;1.65;0.40;;;;;;;-1.05;69.76;102463.91;4989059;28;20081;-79
2023/02/27 04:12:04;;;;;;;1.73;0.40;;;;;;;-1.02;69.40;102467.53;4986441;28;20438;-78
2023/02/27 04:14:46;;;;;;;0.95;0.60;;;;;;;-1.00;69.22;102462.47;4987707;28;20399;-79
2023/02/27 04:17:24;;;;;;;1.90;0.40;;;;;;;-0.96;69.56;102469.56;4988516;28;20455;-79
2023/02/27 04:20:16;;;;;;;1.85;0.40;;;;;;;-0.93;69.51;102475.75;4988300;28;20053;-80
2023/02/27 04:22:47;;;;;;;2.10;0.30;;;;;;;-1.01;69.85;102453.03;4986479;28;20043;-79
2023/02/27 04:25:31;;;;;;;2.50;0.50;;;;;;;-0.91;69.69;102470.72;4982570;28;20125;-79
2023/02/27 04:28:07;;;;;;;1.50;0.47;;;;;;;-0.92;69.58;102466.34;4983720;28;20514;-80
2023/02/27 04:30:44;;;;;;;2.75;0.45;;;;;;;-0.84;69.45;102470.22;4984947;28;20051;-79
2023/02/27 04:33:20;;;;;;;6.55;0.50;;;;;;;-0.78;69.38;102480.84;4980559;28;20057;-79
2023/02/27 04:35:51;;;;;;;5.35;2.20;;;;;;;-0.83;70.19;102463.41;4983477;28;20377;-79
2023/02/27 04:38:24;;;;;;;0.50;0.30;;;;;;;-0.75;70.13;102482.69;4986142;28;20053;-79
2023/02/27 04:40:56;;;;;;;3.78;0.88;;;;;;;-0.73;69.99;102481.97;4989177;28;20717;-79
2023/02/27 04:43:27;;;;;;;2.35;0.60;;;;;;;-0.70;69.88;102474.44;4986159;28;20042;-79
2023/02/27 04:45:57;;;;;;;1.63;0.40;;;;;;;-0.69;69.72;102471.06;4988704;28;20062;-79
2023/02/27 04:48:26;;;;;;;1.95;0.45;;;;;;;-0.63;70.06;102473.06;4990322;28;20050;-79
2023/02/27 04:50:57;;;;;;;2.45;0.68;;;;;;;-0.61;70.03;102468.91;4988928;28;20081;-79
2023/02/27 04:53:29;;;;;;;4.07;0.68;;;;;;;-0.57;70.07;102476.00;4988509;28;20081;-79
2023/02/27 04:56:03;;;;;;;1.60;0.50;;;;;;;-0.56;70.49;102466.63;4988357;28;20039;-79
2023/02/27 04:58:36;;;;;;;4.32;0.40;;;;;;;-0.53;70.06;102470.22;4989073;28;20102;-78
2023/02/27 05:01:07;;;;;;;1.27;0.50;;;;;;;-0.49;69.96;102476.41;4987141;28;20050;-79
2023/02/27 05:03:41;;;;;;;1.55;0.43;;;;;;;-0.44;69.97;102481.78;4992389;28;20050;-79
2023/02/27 05:06:10;;;;;;;4.78;1.20;;;;;;;-0.44;70.32;102476.66;4988196;28;20042;-79
2023/02/27 05:08:43;;;;;;;2.00;0.65;;;;;;;-0.43;70.73;102473.28;4989853;28;20050;-79
2023/02/27 05:11:16;;;;;;;3.72;0.40;;;;;;;-0.38;70.69;102483.00;4988411;28;20586;-78
2023/02/27 05:13:49;;;;;;;3.80;0.40;;;;;;;-0.37;70.32;102484.78;4987592;28;20084;-79
2023/02/27 05:16:25;;;;;;;0.40;0.30;;;;;;;-0.33;70.36;102489.25;4988789;28;20046;-79
2023/02/27 05:18:53;;;;;;;2.95;0.30;;;;;;;-0.36;70.77;102477.97;4983423;28;20054;-79
2023/02/27 05:21:26;;;;;;;1.45;0.50;;;;;;;-0.29;70.37;102491.19;4985565;28;20051;-79
2023/02/27 05:24:09;;;;;;;2.33;0.40;;;;;;;-0.26;70.77;102487.91;4983724;28;20600;-79
2023/02/27 05:27:01;;;;;;;1.92;0.30;;;;;;;-0.23;70.28;102493.19;4986166;28;20541;-79
2023/02/27 05:29:36;;;;;;;2.80;0.50;;;;;;;-0.21;70.57;102480.44;4987751;28;20499;-79
2023/02/27 05:32:11;;;;;;;1.73;0.52;;;;;;;-0.19;70.32;102489.13;4991884;28;20049;-78
2023/02/27 05:34:44;;;;;;;1.20;0.40;;;;;;;-0.22;70.26;102478.69;4992815;28;20057;-79
2023/02/27 05:37:15;;;;;;;1.42;0.30;;;;;;;-0.12;70.67;102488.63;4988571;28;20287;-80
2023/02/27 05:39:43;;;;;;;3.08;0.30;;;;;;;-0.10;70.88;102498.19;4986382;28;20057;-79
2023/02/27 05:42:15;;;;;;;2.03;0.30;;;;;;;-0.07;70.53;102479.47;4987010;28;20039;-79
2023/02/27 05:44:49;;;;;;;1.00;0.38;;;;;;;-0.05;70.28;102483.91;4979802;28;20049;-79
2023/02/27 05:47:20;;;;;;;0.75;0.30;;;;;;;-0.11;71.06;102467.28;4976949;28;20051;-79
2023/02/27 05:49:52;;;;;;;3.13;0.50;;;;;;;-0.10;71.37;102464.78;4982234;28;21443;-79
2023/02/27 05:52:23;;;;;;;1.70;0.45;;;;;;;-0.06;70.87;102465.81;4981990;28;20059;-79
2023/02/27 05:54:55;;;;;;;0.50;0.22;;;;;;;0.04;70.83;102485.19;4980969;28;20058;-79
2023/02/27 05:57:29;;;;;;;4.40;0.40;;;;;;;0.03;70.58;102474.03;4980806;28;20521;-79
2023/02/27 06:00:05;;;;;;;1.77;0.43;;;;;;;0.09;70.68;102471.78;4978965;28;20039;-79
2023/02/27 06:02:32;;;;;;;0.50;0.30;;;;;;;0.11;71.42;102470.16;4976160;28;20046;-79
2023/02/27 06:04:59;;;;;;;3.35;0.25;;;;;;;0.12;70.59;102471.06;4973154;28;20055;-78
2023/02/27 06:07:26;;;;;;;1.95;0.38;;;;;;;0.17;70.63;102483.34;4970455;28;20050;-79
2023/02/27 06:09:53;;;;;;;3.38;0.65;;;;;;;0.19;70.49;102489.41;4977618;28;20047;-79
2023/02/27 06:12:20;;;;;;;8.40;2.05;;;;;;;0.22;71.05;102488.69;4981170;28;20058;-79
2023/02/27 06:14:47;;;;;;;11.73;3.97;;;;;;;0.07;71.49;102459.66;4976631;28;20077;-80
2023/02/27 06:17:15;;;;;;;30.23;9.90;;;;;;;0.27;70.87;102494.06;4982211;28;20053;-79
2023/02/27 06:19:42;;;;;;;18.52;7.50;;;;;;;0.28;70.66;102496.72;4985578;28;20054;-79
2023/02/27 06:22:09;;;;;;;14.68;4.88;;;;;;;0.33;71.16;102499.53;4977640;28;20042;-79
2023/02/27 06:24:36;;;;;;;8.98;3.13;;;;;;;0.30;70.90;102491.66;4976758;28;20054;-79
2023/02/27 06:27:03;;;;;;;8.23;3.03;;;;;;;0.37;71.37;102504.91;4985293;28;20038;-79
2023/02/27 06:29:30;;;;;;;5.82;1.35;;;;;;;0.29;70.83;102492.47;4981670;28;20050;-79
2023/02/27 06:31:57;;;;;;;4.15;1.60;;;;;;;0.37;71.25;102502.34;4988436;28;20058;-78
2023/02/27 06:34:26;;;;;;;3.63;0.50;;;;;;;0.33;71.18;102484.09;4982511;28;20397;-78
2023/02/27 06:36:52;;;;;;;2.10;0.50;;;;;;;0.48;70.71;102520.84;4981756;28;20053;-76
2023/02/27 06:39:20;;;;;;;1.75;0.57;;;;;;;0.52;71.34;102516.78;4968613;28;20050;-77
2023/02/27 06:41:46;;;;;;;1.45;0.85;;;;;;;0.54;70.84;102517.72;4984418;28;20047;-76
2023/02/27 06:44:14;;;;;;;1.42;0.40;;;;;;;0.54;71.57;102516.06;4976886;28;20055;-76
2023/02/27 06:46:40;;;;;;;0.95;0.40;;;;;;;0.60;71.60;102524.06;4984880;28;20046;-76
2023/02/27 06:49:07;;;;;;;1.73;0.43;;;;;;;0.61;71.02;102520.69;4977513;28;20061;-75
2023/02/27 06:51:38;;;;;;;4.25;0.50;;;;;;;0.65;71.06;102530.34;4986338;28;20053;-76
2023/02/27 06:54:06;;;;;;;3.35;0.32;;;;;;;0.67;71.29;102525.25;4984685;28;20057;-75
2023/02/27 06:56:33;;;;;;;4.97;1.00;;;;;;;0.69;71.05;102522.78;4983797;28;20051;-76
2023/02/27 06:59:00;;;;;;;4.57;0.40;;;;;;;0.73;71.00;102532.41;4972562;28;20046;-76
2023/02/27 07:01:27;;;;;;;5.28;0.50;;;;;;;0.70;71.21;102525.41;4979744;28;20054;-76
2023/02/27 07:03:54;;;;;;;4.57;0.50;;;;;;;0.76;71.04;102535.13;4971605;28;20534;-76
2023/02/27 07:06:21;;;;;;;1.42;0.43;;;;;;;0.81;70.97;102537.09;4974938;28;20046;-77
2023/02/27 07:08:49;;;;;;;1.02;0.30;;;;;;;0.77;71.09;102524.00;4979672;28;20509;-76
2023/02/27 07:11:16;;;;;;;2.70;0.40;;;;;;;0.86;70.76;102538.22;4971107;28;20062;-76
2023/02/27 07:13:43;;;;;;;2.00;0.45;;;;;;;0.89;70.68;102542.66;4971135;28;20051;-77
2023/02/27 07:16:10;;;;;;;1.65;1.05;;;;;;;0.94;71.26;102545.44;4983188;28;20055;-77
2023/02/27 07:18:37;;;;;;;1.92;0.68;;;;;;;0.96;70.87;102543.81;4976993;28;20454;-77
2023/02/27 07:21:04;;;;;;;9.07;2.85;;;;;;;0.87;71.65;102518.53;4984612;28;20058;-78
2023/02/27 07:23:31;;;;;;;8.60;1.90;;;;;;;1.02;70.97;102544.13;4983115;28;20391;-77
2023/02/27 07:25:59;;;;;;;2.60;1.05;;;;;;;1.03;71.64;102554.50;4984374;28;20514;-78
2023/02/27 07:28:26;;;;;;;2.45;1.10;;;;;;;1.07;71.18;102553.81;4975020;28;20050;-77
2023/02/27 07:30:54;;;;;;;3.92;1.80;;;;;;;1.10;71.66;102564.25;4977230;28;20055;-78
2023/02/27 07:33:22;;;;;;;5.43;1.85;;;;;;;1.10;71.34;102551.41;4978622;28;20058;-77
2023/02/27 07:35:52;;;;;;;10.27;1.05;;;;;;;1.18;71.19;102563.78;4976596;28;20147;-77
2023/02/27 07:38:21;;;;;;;2.55;0.70;;;;;;;1.21;71.65;102563.91;4971897;28;20047;-78
2023/02/27 07:40:48;;;;;;;2.38;0.80;;;;;;;1.15;71.64;102553.34;4973347;28;20046;-77
2023/02/27 07:43:16;;;;;;;4.40;1.15;;;;;;;1.25;71.12;102566.72;4974897;28;20070;-77
2023/02/27 07:45:43;;;;;;;1.02;0.60;;;;;;;1.30;71.71;102569.50;4973499;28;20711;-77
2023/02/27 07:48:10;;;;;;;2.85;0.65;;;;;;;1.32;71.59;102568.78;4976951;28;20043;-77
2023/02/27 07:50:37;;;;;;;7.63;0.70;;;;;;;1.34;71.58;102563.72;4985012;28;20502;-77
2023/02/27 07:53:06;;;;;;;2.53;0.77;;;;;;;1.32;71.45;102553.31;4977905;28;20049;-77
2023/02/27 07:55:33;;;;;;;1.23;0.50;;;;;;;1.43;71.32;102569.28;4970996;28;20057;-77
2023/02/27 07:58:00;;;;;;;3.55;0.85;;;;;;;1.45;71.11;102575.41;4974805;28;20557;-77
2023/02/27 08:00:28;;;;;;;3.65;0.52;;;;;;;1.48;71.50;102577.22;4983457;28;20047;-77
2023/02/27 08:02:55;;;;;;;1.30;0.70;;;;;;;1.52;71.66;102576.56;4983072;28;20077;-77
2023/02/27 08:05:22;;;;;;;1.50;0.80;;;;;;;1.54;71.92;102583.56;4973699;28;20046;-75
2023/02/27 08:07:49;;;;;;;2.20;0.50;;;;;;;1.58;71.90;102588.03;4977388;28;20418;-78
2023/02/27 08:10:16;;;;;;;1.42;0.20;;;;;;;1.41;71.40;102555.44;4983100;28;20046;-77
2023/02/27 08:12:43;;;;;;;0.88;0.38;;;;;;;1.65;71.49;102593.47;4978627;28;20054;-78
2023/02/27 08:15:10;;;;;;;3.63;0.50;;;;;;;1.58;71.35;102577.72;4983101;28;20105;-76
2023/02/27 08:17:39;;;;;;;3.63;0.50;;;;;;;1.73;71.57;102602.44;4981586;28;20061;-76
2023/02/27 08:20:10;;;;;;;4.10;0.40;;;;;;;1.76;71.24;102605.16;4974766;28;20057;-80
2023/02/27 08:22:37;;;;;;;1.15;0.40;;;;;;;1.80;71.41;102614.81;4987359;28;20054;-76
2023/02/27 08:25:06;;;;;;;1.33;0.40;;;;;;;1.83;71.79;102617.53;4977653;28;20542;-75
2023/02/27 08:27:33;;;;;;;0.65;0.20;;;;;;;1.83;70.92;102607.22;4981676;28;20042;-75
2023/02/27 08:30:00;;;;;;;0.73;0.40;;;;;;;1.88;71.59;102616.06;4977847;28;20057;-76
2023/02/27 08:32:27;;;;;;;3.25;0.30;;;;;;;1.90;71.40;102614.41;4984000;28;20050;-79
2023/02/27 08:34:55;;;;;;;0.70;0.25;;;;;;;1.99;71.64;102630.34;4979378;28;20502;-78
2023/02/27 08:37:22;;;;;;;2.97;0.40;;;;;;;2.02;71.68;102619.25;4989243;28;20058;-79
2023/02/27 08:39:49;;;;;;;2.95;0.30;;;;;;;2.06;71.44;102630.63;4985619;28;20045;-78
2023/02/27 08:42:16;;;;;;;3.40;0.20;;;;;;;2.12;71.86;102625.75;4977408;28;20486;-78
2023/02/27 08:44:43;;;;;;;0.35;0.20;;;;;;;2.14;71.63;102635.31;4981419;28;20053;-78
2023/02/27 08:47:10;;;;;;;1.00;0.20;;;;;;;2.19;71.89;102635.50;4974969;28;20046;-79
2023/02/27 08:49:36;;;;;;;2.10;0.20;;;;;;;2.21;71.54;102646.78;4973524;28;20050;-78
2023/02/27 08:52:05;;;;;;;3.08;0.20;;;;;;;2.27;71.47;102654.78;4975289;28;20057;-78
2023/02/27 08:54:32;;;;;;;1.70;0.70;;;;;;;2.30;71.46;102662.66;4984482;28;20078;-77
2023/02/27 08:56:59;;;;;;;0.73;0.30;;;;;;;2.29;71.72;102648.00;4982383;28;20406;-79
2023/02/27 08:59:25;;;;;;;1.10;0.20;;;;;;;2.37;71.74;102656.09;4980160;28;20465;-77
2023/02/27 09:01:52;;;;;;;0.88;0.30;;;;;;;2.40;71.32;102658.81;4985002;28;20051;-77
2023/02/27 09:04:22;;;;;;;1.45;0.40;;;;;;;2.45;71.14;102662.50;4975557;28;20046;-78
2023/02/27 09:06:49;;;;;;;3.00;0.30;;;;;;;2.47;71.33;102666.88;4980794;28;20058;-78
2023/02/27 09:09:18;;;;;;;0.77;0.30;;;;;;;2.53;70.90;102675.72;4977740;28;20050;-78
2023/02/27 09:11:45;;;;;;;2.85;0.60;;;;;;;2.41;71.10;102651.13;4974827;28;20057;-76
2023/02/27 09:14:13;;;;;;;1.48;0.38;;;;;;;2.48;70.77;102666.09;4980432;28;20133;-76
2023/02/27 09:16:40;;;;;;;1.05;0.20;;;;;;;2.64;70.83;102684.81;4978440;28;20499;-77
2023/02/27 09:19:06;;;;;;;1.02;0.22;;;;;;;2.65;70.73;102692.66;4981760;28;20562;-77
2023/02/27 09:21:33;;;;;;;0.43;0.30;;;;;;;2.70;70.89;102695.41;4979034;28;20407;-78
2023/02/27 09:24:00;;;;;;;0.32;0.20;;;;;;;2.72;70.89;102687.75;4980547;28;20074;-77
2023/02/27 09:26:28;;;;;;;0.45;0.38;;;;;;;2.75;71.38;102693.94;4981061;28;20046;-78
2023/02/27 09:28:55;;;;;;;0.73;0.30;;;;;;;2.79;70.63;102685.53;4976110;28;20078;-77
2023/02/27 09:31:22;;;;;;;0.95;0.20;;;;;;;2.81;71.06;102689.03;4990604;28;20042;-77
2023/02/27 09:33:49;;;;;;;1.20;0.30;;;;;;;2.80;71.16;102676.94;4989370;28;20395;-77
2023/02/27 09:36:16;;;;;;;1.80;0.32;;;;;;;2.88;71.02;102691.09;4982693;28;20758;-78
2023/02/27 09:38:43;;;;;;;0.63;0.20;;;;;;;2.73;70.61;102659.41;4986288;28;20057;-78
2023/02/27 09:41:38;;;;;;;1.77;0.20;;;;;;;2.96;70.73;102693.09;4980059;28;20049;-78
2023/02/27 09:44:05;;;;;;;1.23;0.30;;;;;;;2.99;70.75;102688.06;4981059;28;20047;-78
2023/02/27 09:46:32;;;;;;;1.00;0.35;;;;;;;3.02;71.11;102695.97;4983813;28;20053;-78
2023/02/27 09:49:04;;;;;;;0.95;0.30;;;;;;;3.02;70.49;102683.06;4984077;28;20055;-78
2023/02/27 09:51:31;;;;;;;1.02;0.30;;;;;;;3.09;70.95;102696.28;4985897;28;20050;-77
2023/02/27 09:54:01;;;;;;;1.13;0.20;;;;;;;3.10;70.77;102690.31;4974474;28;20047;-77
2023/02/27 09:56:34;;;;;;;1.58;0.30;;;;;;;3.17;70.50;102696.63;4986348;28;20066;-78
2023/02/27 09:59:05;;;;;;;1.25;0.20;;;;;;;3.18;71.18;102687.16;4984276;28;20046;-77
2023/02/27 10:01:37;;;;;;;0.50;0.10;;;;;;;3.23;70.53;102694.28;4984925;28;20047;-77
2023/02/27 10:04:25;;;;;;;0.68;0.20;;;;;;;3.08;70.49;102662.66;4980972;28;20506;-78
2023/02/27 10:06:58;;;;;;;2.17;0.22;;;;;;;3.12;70.76;102664.53;4990101;28;20126;-78
2023/02/27 10:09:35;;;;;;;1.00;0.20;;;;;;;3.38;70.87;102700.09;4983843;28;20051;-78
2023/02/27 10:12:23;;;;;;;0.30;0.20;;;;;;;3.44;70.95;102698.59;4980923;28;20888;-78
2023/02/27 10:14:53;;;;;;;0.82;0.20;;;;;;;3.50;70.37;102697.16;4988989;28;20050;-78
2023/02/27 10:17:24;;;;;;;1.40;0.20;;;;;;;3.50;70.85;102693.66;4988260;28;20046;-78
2023/02/27 10:19:55;;;;;;;1.05;0.20;;;;;;;3.58;70.48;102692.28;4986664;28;20042;-78
2023/02/27 10:22:28;;;;;;;0.45;0.20;;;;;;;3.66;70.30;102697.78;4993450;28;20474;-77
2023/02/27 10:25:00;;;;;;;1.60;0.20;;;;;;;3.57;69.99;102670.75;4985787;28;20074;-78
2023/02/27 10:27:31;;;;;;;0.63;0.10;;;;;;;3.61;70.23;102671.75;4987015;28;20089;-79
2023/02/27 10:30:16;;;;;;;3.97;0.20;;;;;;;3.80;70.24;102700.09;4984300;28;20038;-78
2023/02/27 10:32:46;;;;;;;0.82;0.20;;;;;;;3.87;70.41;102695.16;4981578;28;20499;-78
2023/02/27 10:35:26;;;;;;;0.20;0.10;;;;;;;3.92;70.31;102693.66;4982957;28;20049;-78
2023/02/27 10:37:59;;;;;;;1.05;0.20;;;;;;;3.94;70.27;102686.84;4986516;28;20121;-78
2023/02/27 10:40:26;;;;;;;0.30;0.20;;;;;;;4.02;70.27;102691.50;4983397;28;20050;-78
2023/02/27 10:42:59;;;;;;;3.28;0.20;;;;;;;4.06;70.07;102692.50;4983181;28;20398;-78
2023/02/27 10:45:26;;;;;;;0.82;0.47;;;;;;;4.04;69.72;102673.44;4983131;28;20153;-78
2023/02/27 10:47:53;;;;;;;2.65;0.20;;;;;;;4.19;69.97;102694.75;4978584;28;20054;-78
2023/02/27 10:50:27;;;;;;;0.70;0.10;;;;;;;4.24;69.57;102687.13;4976656;28;20054;-79
2023/02/27 10:52:56;;;;;;;0.70;0.20;;;;;;;4.29;69.57;102683.91;4988488;28;20042;-78
2023/02/27 10:55:26;;;;;;;1.02;0.20;;;;;;;4.31;69.55;102680.50;4979887;28;20554;-78
2023/02/27 10:57:56;;;;;;;2.92;0.20;;;;;;;4.37;69.65;102670.38;4977368;28;20053;-79
2023/02/27 11:00:32;;;;;;;0.45;0.10;;;;;;;4.42;69.67;102668.84;4988287;28;20042;-79
2023/02/27 11:02:59;;;;;;;0.30;0.10;;;;;;;4.46;69.34;102673.31;4986035;28;20058;-79
2023/02/27 11:05:29;;;;;;;1.20;0.10;;;;;;;4.51;69.38;102684.72;4979765;28;20054;-79
2023/02/27 11:07:57;;;;;;;0.40;0.10;;;;;;;4.46;69.14;102670.72;4982441;28;20046;-79
2023/02/27 11:10:27;;;;;;;0.17;0.10;;;;;;;4.60;69.14;102691.94;4987242;28;20053;-79
2023/02/27 11:13:03;;;;;;;1.20;0.10;;;;;;;4.64;68.94;102684.34;4976110;28;20066;-79
2023/02/27 11:15:33;;;;;;;0.95;0.20;;;;;;;4.69;68.94;102687.09;4986966;28;20050;-79
2023/02/27 11:18:24;;;;;;;1.17;0.10;;;;;;;4.73;68.79;102684.69;4985696;28;20061;-79
2023/02/27 11:20:51;;;;;;;1.58;0.20;;;;;;;4.76;68.79;102688.22;4988474;28;20054;-79
2023/02/27 11:23:21;;;;;;;1.95;0.10;;;;;;;4.78;68.64;102691.72;4987456;28;20066;-80
2023/02/27 11:25:48;;;;;;;1.20;0.25;;;;;;;4.82;68.46;102683.25;4986632;28;20068;-79
2023/02/27 11:28:23;;;;;;;0.75;0.20;;;;;;;4.86;68.45;102685.09;4980983;28;20058;-79
2023/02/27 11:31:02;;;;;;;4.10;0.10;;;;;;;4.90;68.58;102689.59;4984948;28;20051;-78
2023/02/27 11:33:31;;;;;;;2.15;0.20;;;;;;;4.93;68.42;102687.09;4978794;28;20053;-76
2023/02/27 11:35:58;;;;;;;0.10;0.10;;;;;;;4.74;68.14;102650.19;4985376;28;20054;-78
2023/02/27 11:38:28;;;;;;;2.22;0.20;;;;;;;4.85;68.13;102662.66;4993103;28;20046;-77
2023/02/27 11:40:57;;;;;;;0.25;0.20;;;;;;;4.98;68.19;102675.19;4989328;28;20106;-78
2023/02/27 11:43:30;;;;;;;3.00;0.17;;;;;;;5.03;67.93;102681.41;4977654;28;20050;-77
2023/02/27 11:46:00;;;;;;;1.08;0.20;;;;;;;5.06;68.12;102688.41;4986481;28;20050;-77
2023/02/27 11:48:30;;;;;;;1.75;0.10;;;;;;;5.07;67.95;102693.66;4978050;28;20050;-77